Aérodrome :
LOGIN :

S'inscrire | Disclaimer

   EN    FR    IT 

 










Légende :    VFR   VFR Marginal   IFR   IFR Intensif   IFR Très Intensif
Visi : 
Plafond : 
>= 8 km
>= 3000ft
5 à 8 km
1000 à 3000 ft
1500m à 5 km
500 à 1000 ft
800 à 1500m
200 à 500 ft
< 800m
< 200 ft
Symboles :   Orages  Brouillard  Fortes neiges  Fortes précipitations  Vent > 20 kt
SIGMETs :   Divers  Orages  Givrage  Turbulence  Onde Orograph.  Cendres Volcan.







- Altitude de l'aérodrome : 364 ft
- Code IATA : FRA


EDDF - Frankfurt Int.

DERNIER METAR :
  • 191320Z 23011KT 9999 FEW030 SCT055 06/M02 Q1010 NOSIG

METARs EXPIRÉS :
  • 191250Z 24013KT 9999 FEW028 SCT042 BKN050 06/M01 Q1011 NOSIG
  • 191220Z 24013KT 9999 FEW026 SCT042 BKN050 06/M02 Q1011 NOSIG
  • 191150Z 23013KT 9999 FEW026 BKN043 05/M02 Q1011 NOSIG
  • 191120Z 23014KT 9999 FEW024 BKN036 05/M01 Q1011 NOSIG
  • 191050Z 23012KT 9999 FEW024 BKN034 05/M01 Q1011 NOSIG

TAF TAF EDDF
Valide du 19 à 12h jusqu'au 20 à 18h UTC


191100Z 1912/2018 23012KT 9999 BKN030
PROB30
TEMPO 1912/1916 24015G25KT
PROB30
TEMPO 1917/1920 SHRA BKN020TCU
TEMPO 1920/2006 1200 SHSN BKN008 BKN015CB
BECMG 2012/2015 13005KT BKN008
Pas de NOTAMs connus pour ce terrain.



MET'MAP, la Météo Aéronautique d'un coup d'oeil ! - Copyright ORBIFLY Décembre 2007 - Disclaimer

ORBIFLY MET'MAP TEAM :

Programmation & Développement : Alexandra Zaïnal
Conception & Développement : Baudouin d'Aumeries
Co-Programmation & Développement : Marc-Olivier Méhu
Soutien technique & logistique : Manuel Goepfert

Contact : metmap@orbifly.com




SOURCES & CREDITS :

   NOAA